Time;durP1;ratioP1;P1;durP2;ratioP2;P2;SDS_P1;SDS_P2;PMS_P1;PMS_P2;Temp;Humidity;BMP_temperature;BMP_pressure;BME280_temperature;BME280_humidity;BME280_pressure;Samples;Min_cycle;Max_cycle;Signal;HPM_P1;HPM_P2
2022/09/23 00:01:03;;;;;;;;;;;6.50;99.90;;;;;;5073456;28;19932;-72
2022/09/23 00:03:37;;;;;;;;;;;6.50;99.90;;;;;;5081721;28;19931;-71
2022/09/23 00:06:32;;;;;;;;;;;6.50;99.90;;;;;;5082638;28;19935;-72
2022/09/23 00:09:04;;;;;;;;;;;6.50;99.90;;;;;;5073421;28;19928;-72
2022/09/23 00:11:36;;;;;;;;;;;6.50;99.90;;;;;;5061427;28;19924;-72
2022/09/23 00:14:08;;;;;;;;;;;6.40;99.90;;;;;;5087657;28;19958;-72
2022/09/23 00:16:39;;;;;;;;;;;6.40;99.90;;;;;;5072956;28;19974;-71
2022/09/23 00:19:11;;;;;;;;;;;6.30;99.90;;;;;;5073172;28;19929;-73
2022/09/23 00:21:43;;;;;;;;;;;6.30;99.90;;;;;;5083570;28;19932;-72
2022/09/23 00:24:14;;;;;;;;;;;6.30;99.90;;;;;;5076445;28;20441;-72
2022/09/23 00:26:46;;;;;;;;;;;6.30;99.90;;;;;;5079724;28;20342;-72
2022/09/23 00:29:17;;;;;;;;;;;6.30;99.90;;;;;;5071581;28;19951;-71
2022/09/23 00:31:49;;;;;;;;;;;6.30;99.90;;;;;;5064301;28;19931;-71
2022/09/23 00:34:20;;;;;;;;;;;6.30;99.90;;;;;;5034912;28;19925;-72
2022/09/23 00:36:52;;;;;;;;;;;6.20;99.90;;;;;;5071635;28;20372;-72
2022/09/23 00:39:25;;;;;;;;;;;6.20;99.90;;;;;;5082299;28;19970;-71
2022/09/23 00:41:56;;;;;;;;;;;6.20;99.90;;;;;;5048952;28;19924;-71
2022/09/23 00:44:39;;;;;;;;;;;6.20;99.90;;;;;;5052568;28;19929;-72
2022/09/23 00:47:18;;;;;;;;;;;6.10;99.90;;;;;;5072280;28;19978;-72
2022/09/23 00:49:59;;;;;;;;;;;6.10;99.90;;;;;;5088120;28;19924;-72
2022/09/23 00:52:31;;;;;;;;;;;6.00;99.90;;;;;;5088922;28;19931;-71
2022/09/23 00:55:06;;;;;;;;;;;6.00;99.90;;;;;;5076293;28;19975;-71
2022/09/23 00:57:39;;;;;;;;;;;6.00;99.90;;;;;;5075804;28;19928;-71
2022/09/23 01:00:11;;;;;;;;;;;6.00;99.90;;;;;;5050848;28;19925;-72
2022/09/23 01:02:42;;;;;;;;;;;5.90;99.90;;;;;;5060140;28;19935;-72
2022/09/23 01:05:15;;;;;;;;;;;5.90;99.90;;;;;;5067821;28;19932;-72
2022/09/23 01:07:48;;;;;;;;;;;5.90;99.90;;;;;;5068112;28;19932;-71
2022/09/23 01:10:20;;;;;;;;;;;5.90;99.90;;;;;;5074403;28;19951;-72
2022/09/23 01:13:14;;;;;;;;;;;5.80;99.90;;;;;;5062407;28;19928;-72
2022/09/23 01:15:46;;;;;;;;;;;5.80;99.90;;;;;;5075534;28;19928;-72
2022/09/23 01:18:17;;;;;;;;;;;5.80;99.90;;;;;;5075272;28;20341;-72
2022/09/23 01:21:05;;;;;;;;;;;5.80;99.90;;;;;;5076353;28;19953;-72
2022/09/23 01:23:56;;;;;;;;;;;5.80;99.90;;;;;;5075879;28;19970;-72
2022/09/23 01:26:28;;;;;;;;;;;5.70;99.90;;;;;;5071453;28;19928;-72
2022/09/23 01:29:18;;;;;;;;;;;5.70;99.90;;;;;;5081122;28;19985;-71
2022/09/23 01:32:04;;;;;;;;;;;5.60;99.90;;;;;;5077143;28;19987;-72
2022/09/23 01:34:54;;;;;;;;;;;5.60;99.90;;;;;;5063579;28;20309;-72
2022/09/23 01:37:35;;;;;;;;;;;5.60;99.90;;;;;;5067920;28;19924;-71
2022/09/23 01:40:13;;;;;;;;;;;5.60;99.90;;;;;;5048658;28;19924;-72
2022/09/23 01:42:50;;;;;;;;;;;5.60;99.90;;;;;;5084210;28;19986;-72
2022/09/23 01:45:35;;;;;;;;;;;5.60;99.90;;;;;;5062636;28;19954;-72
2022/09/23 01:48:20;;;;;;;;;;;5.50;99.90;;;;;;5095541;28;19939;-71
2022/09/23 01:50:57;;;;;;;;;;;5.50;99.90;;;;;;5095871;28;20354;-72
2022/09/23 01:53:38;;;;;;;;;;;5.50;99.90;;;;;;5081696;28;20337;-72
2022/09/23 01:56:12;;;;;;;;;;;5.40;99.90;;;;;;5064678;28;19928;-72
2022/09/23 01:58:47;;;;;;;;;;;5.50;99.90;;;;;;5075276;28;19924;-72
2022/09/23 02:01:22;;;;;;;;;;;5.40;99.90;;;;;;5075493;28;20395;-72
2022/09/23 02:04:03;;;;;;;;;;;5.40;99.90;;;;;;5091508;28;19924;-72
2022/09/23 02:06:40;;;;;;;;;;;5.30;99.90;;;;;;5061317;28;20364;-72
2022/09/23 02:09:18;;;;;;;;;;;5.30;99.90;;;;;;5062345;28;20284;-72
2022/09/23 02:11:51;;;;;;;;;;;5.30;99.90;;;;;;5058241;28;19979;-72
2022/09/23 02:14:23;;;;;;;;;;;5.20;99.90;;;;;;5087766;28;19936;-71
2022/09/23 02:16:57;;;;;;;;;;;5.20;99.90;;;;;;5032820;28;19932;-72
2022/09/23 02:19:33;;;;;;;;;;;5.20;99.90;;;;;;5087602;28;19924;-73
2022/09/23 02:22:07;;;;;;;;;;;5.10;99.90;;;;;;5092793;28;19924;-72
2022/09/23 02:24:38;;;;;;;;;;;5.10;99.90;;;;;;5067771;28;20349;-71
2022/09/23 02:27:10;;;;;;;;;;;5.10;99.90;;;;;;5080119;28;19928;-72
2022/09/23 02:30:17;;;;;;;;;;;5.10;99.90;;;;;;5066140;28;20472;-72
2022/09/23 02:33:21;;;;;;;;;;;5.10;99.90;;;;;;4977066;28;19926;-71
2022/09/23 02:35:55;;;;;;;;;;;5.10;99.90;;;;;;5052864;28;20375;-72
2022/09/23 02:38:39;;;;;;;;;;;5.10;99.90;;;;;;5053322;28;19925;-71
2022/09/23 02:41:29;;;;;;;;;;;5.00;99.90;;;;;;5077911;28;19924;-72
2022/09/23 02:44:06;;;;;;;;;;;5.00;99.90;;;;;;5050876;28;19935;-72
2022/09/23 02:46:38;;;;;;;;;;;5.00;99.90;;;;;;5078716;28;19975;-71
2022/09/23 02:49:16;;;;;;;;;;;5.00;99.90;;;;;;5088466;28;20345;-72
2022/09/23 02:51:48;;;;;;;;;;;5.00;99.90;;;;;;5070774;28;19990;-72
2022/09/23 02:54:21;;;;;;;;;;;5.00;99.90;;;;;;5075994;28;19925;-72
2022/09/23 02:56:53;;;;;;;;;;;4.90;99.90;;;;;;5079973;28;20276;-71
2022/09/23 02:59:25;;;;;;;;;;;4.90;99.90;;;;;;5084863;28;20448;-72
2022/09/23 03:02:16;;;;;;;;;;;4.90;99.90;;;;;;5090385;28;19947;-71
2022/09/23 03:04:57;;;;;;;;;;;4.90;99.90;;;;;;5070120;28;19948;-72
2022/09/23 03:07:31;;;;;;;;;;;4.90;99.90;;;;;;5069964;28;19990;-72
2022/09/23 03:10:24;;;;;;;;;;;4.90;99.90;;;;;;5052935;28;19991;-72
2022/09/23 03:13:04;;;;;;;;;;;4.90;99.90;;;;;;5076354;28;20368;-71
2022/09/23 03:15:45;;;;;;;;;;;4.90;99.90;;;;;;5089297;28;19929;-72
2022/09/23 03:18:30;;;;;;;;;;;4.80;99.90;;;;;;5080094;28;19928;-72
2022/09/23 03:21:07;;;;;;;;;;;4.80;99.90;;;;;;5072178;28;19993;-72
2022/09/23 03:23:39;;;;;;;;;;;4.80;99.90;;;;;;5082897;28;20398;-72
2022/09/23 03:26:14;;;;;;;;;;;4.70;99.90;;;;;;5081543;28;20062;-71
2022/09/23 03:28:45;;;;;;;;;;;4.70;99.90;;;;;;5066719;28;20298;-72
2022/09/23 03:31:17;;;;;;;;;;;4.70;99.90;;;;;;5085224;28;19924;-72
2022/09/23 03:33:51;;;;;;;;;;;4.70;99.90;;;;;;5055215;28;19929;-72
2022/09/23 03:39:21;;;;;;;;;;;4.60;99.90;;;;;;5068413;28;19985;-72
2022/09/23 03:41:54;;;;;;;;;;;4.60;99.90;;;;;;5082089;28;19989;-72
2022/09/23 03:44:27;;;;;;;;;;;4.60;99.90;;;;;;5075332;28;19948;-72
2022/09/23 03:47:01;;;;;;;;;;;4.60;99.90;;;;;;5053607;28;20300;-72
2022/09/23 03:49:38;;;;;;;;;;;4.50;99.90;;;;;;5085382;28;20410;-73
2022/09/23 03:52:10;;;;;;;;;;;4.50;99.90;;;;;;5067869;28;20279;-72
2022/09/23 03:54:41;;;;;;;;;;;4.40;99.90;;;;;;5078299;28;19932;-72
2022/09/23 03:57:13;;;;;;;;;;;4.40;99.90;;;;;;5064657;28;20341;-72
2022/09/23 03:59:45;;;;;;;;;;;4.40;99.90;;;;;;5078341;28;19978;-72
2022/09/23 04:02:17;;;;;;;;;;;4.40;99.90;;;;;;5055432;28;19925;-73
2022/09/23 04:04:48;;;;;;;;;;;4.30;99.90;;;;;;5056582;28;19978;-72
2022/09/23 04:07:20;;;;;;;;;;;4.30;99.90;;;;;;5047733;28;19998;-73
2022/09/23 04:09:52;;;;;;;;;;;4.30;99.90;;;;;;5070154;28;19967;-72
2022/09/23 04:12:23;;;;;;;;;;;4.30;99.90;;;;;;5070731;28;20313;-72
2022/09/23 04:14:55;;;;;;;;;;;4.30;99.90;;;;;;5076886;28;19929;-72
2022/09/23 04:17:27;;;;;;;;;;;4.20;99.90;;;;;;5051136;28;19929;-72
2022/09/23 04:19:58;;;;;;;;;;;4.30;99.90;;;;;;5047387;28;19925;-71
2022/09/23 04:22:25;;;;;;;;;;;4.30;99.90;;;;;;5074263;28;19966;-71
2022/09/23 04:24:56;;;;;;;;;;;4.20;99.90;;;;;;5073171;28;19924;-72
2022/09/23 04:27:28;;;;;;;;;;;4.20;99.90;;;;;;5072711;28;19924;-72
2022/09/23 04:30:00;;;;;;;;;;;4.20;99.90;;;;;;5072643;28;19928;-73
2022/09/23 04:32:31;;;;;;;;;;;4.20;99.90;;;;;;5055166;28;20303;-72
2022/09/23 04:35:03;;;;;;;;;;;4.20;99.90;;;;;;5072381;28;20284;-72
2022/09/23 04:37:35;;;;;;;;;;;4.10;99.90;;;;;;5072034;28;19925;-72
2022/09/23 04:40:07;;;;;;;;;;;4.10;99.90;;;;;;5077836;28;19983;-72
2022/09/23 04:42:38;;;;;;;;;;;4.10;99.90;;;;;;5072271;28;19928;-72
2022/09/23 04:45:10;;;;;;;;;;;4.10;99.90;;;;;;5069945;28;20399;-72
2022/09/23 04:47:41;;;;;;;;;;;4.10;99.90;;;;;;5071289;28;20291;-72
2022/09/23 04:50:13;;;;;;;;;;;4.20;99.90;;;;;;5060913;28;19975;-71
2022/09/23 04:52:45;;;;;;;;;;;4.20;99.90;;;;;;5066314;28;19932;-72
2022/09/23 04:55:19;;;;;;;;;;;4.20;99.90;;;;;;5056741;28;20039;-72
2022/09/23 04:57:51;;;;;;;;;;;4.10;99.90;;;;;;5080228;28;19924;-71
2022/09/23 05:00:23;;;;;;;;;;;4.10;99.90;;;;;;5051547;28;19970;-72
2022/09/23 05:02:54;;;;;;;;;;;4.10;99.90;;;;;;5072008;28;20432;-72
2022/09/23 05:05:22;;;;;;;;;;;4.10;99.90;;;;;;5061508;28;19955;-72
2022/09/23 05:07:49;;;;;;;;;;;4.00;99.90;;;;;;5080804;28;19929;-72
2022/09/23 05:10:21;;;;;;;;;;;4.00;99.90;;;;;;5068072;28;19928;-72
2022/09/23 05:12:53;;;;;;;;;;;4.00;99.90;;;;;;5078710;28;20315;-72
2022/09/23 05:15:24;;;;;;;;;;;4.00;99.90;;;;;;5080672;28;20624;-72
2022/09/23 05:17:56;;;;;;;;;;;4.00;99.90;;;;;;5063309;28;19924;-72
2022/09/23 05:20:28;;;;;;;;;;;3.90;99.90;;;;;;5072321;28;19924;-72
2022/09/23 05:22:59;;;;;;;;;;;4.00;99.90;;;;;;5072406;28;19940;-72
2022/09/23 05:25:26;;;;;;;;;;;3.90;99.90;;;;;;5070402;28;19931;-72
2022/09/23 05:27:58;;;;;;;;;;;3.90;99.90;;;;;;5058038;28;19924;-73
2022/09/23 05:30:29;;;;;;;;;;;4.00;99.90;;;;;;5065771;28;19935;-71
2022/09/23 05:33:01;;;;;;;;;;;4.00;99.90;;;;;;5057753;28;19925;-72
2022/09/23 05:35:33;;;;;;;;;;;3.90;99.90;;;;;;5061548;28;19932;-72
2022/09/23 05:38:05;;;;;;;;;;;4.00;99.90;;;;;;5068463;28;19928;-73
2022/09/23 05:40:36;;;;;;;;;;;3.90;99.90;;;;;;5075759;28;20291;-72
2022/09/23 05:43:03;;;;;;;;;;;3.90;99.90;;;;;;5061417;28;19951;-71
2022/09/23 05:45:34;;;;;;;;;;;4.00;99.90;;;;;;5067212;28;20651;-72
2022/09/23 05:48:06;;;;;;;;;;;4.00;99.90;;;;;;5046293;28;19939;-72
2022/09/23 05:50:38;;;;;;;;;;;4.00;99.90;;;;;;5061627;28;19929;-72
2022/09/23 05:53:09;;;;;;;;;;;4.00;99.90;;;;;;5080852;28;19928;-71
2022/09/23 05:55:41;;;;;;;;;;;4.00;99.90;;;;;;5049257;28;20440;-72
2022/09/23 05:58:07;;;;;;;;;;;4.10;99.90;;;;;;5074974;28;20547;-73
2022/09/23 06:00:39;;;;;;;;;;;4.10;99.90;;;;;;5079347;28;19970;-72
2022/09/23 06:03:12;;;;;;;;;;;4.20;99.90;;;;;;5066913;28;19964;-72
2022/09/23 06:05:44;;;;;;;;;;;4.20;99.90;;;;;;5079959;28;19978;-72
2022/09/23 06:08:15;;;;;;;;;;;4.20;99.90;;;;;;5071071;28;19925;-72
2022/09/23 06:10:47;;;;;;;;;;;4.30;99.90;;;;;;5057790;28;19925;-73
2022/09/23 06:13:17;;;;;;;;;;;4.30;99.90;;;;;;5046024;28;19925;-72
2022/09/23 06:15:49;;;;;;;;;;;4.40;99.90;;;;;;5052393;28;19964;-73
2022/09/23 06:18:20;;;;;;;;;;;4.40;99.90;;;;;;5063356;28;19951;-71
2022/09/23 06:20:47;;;;;;;;;;;4.30;99.90;;;;;;5062422;28;19924;-72
2022/09/23 06:23:19;;;;;;;;;;;4.30;99.90;;;;;;5074814;28;19925;-72
2022/09/23 06:25:50;;;;;;;;;;;4.30;99.90;;;;;;5063521;28;19932;-73
2022/09/23 06:28:22;;;;;;;;;;;4.30;99.90;;;;;;5081632;28;19936;-73
2022/09/23 06:31:00;;;;;;;;;;;4.30;99.90;;;;;;5076224;28;19981;-71
2022/09/23 06:33:32;;;;;;;;;;;4.20;99.90;;;;;;5065571;28;19924;-73
2022/09/23 06:35:59;;;;;;;;;;;4.20;99.90;;;;;;5081862;28;20733;-72
2022/09/23 06:38:34;;;;;;;;;;;4.20;99.90;;;;;;5069549;28;20665;-72
2022/09/23 06:41:02;;;;;;;;;;;4.30;99.90;;;;;;5083341;28;20002;-73
2022/09/23 06:43:33;;;;;;;;;;;4.30;99.90;;;;;;5075411;28;19956;-72
2022/09/23 06:46:06;;;;;;;;;;;4.40;99.90;;;;;;5071753;28;20288;-72
2022/09/23 06:48:39;;;;;;;;;;;4.50;99.90;;;;;;5067772;28;19934;-72
2022/09/23 06:51:17;;;;;;;;;;;4.60;99.90;;;;;;5054565;28;19932;-72
2022/09/23 06:53:49;;;;;;;;;;;4.60;99.90;;;;;;5074915;28;19936;-72
2022/09/23 06:56:21;;;;;;;;;;;4.70;99.90;;;;;;5064638;28;19932;-72
2022/09/23 06:58:50;;;;;;;;;;;4.90;99.90;;;;;;5066622;28;19954;-72
2022/09/23 07:01:22;;;;;;;;;;;4.90;99.90;;;;;;5064924;28;20399;-72
2022/09/23 07:03:54;;;;;;;;;;;5.00;99.90;;;;;;5076818;28;19925;-72
2022/09/23 07:06:26;;;;;;;;;;;5.10;99.90;;;;;;5079387;28;19999;-72
2022/09/23 07:08:57;;;;;;;;;;;5.20;99.90;;;;;;5053096;28;19931;-72
2022/09/23 07:11:29;;;;;;;;;;;5.30;99.90;;;;;;5045780;28;19932;-72
2022/09/23 07:14:00;;;;;;;;;;;5.40;99.90;;;;;;5077680;28;19978;-72
2022/09/23 07:16:32;;;;;;;;;;;5.60;99.90;;;;;;5047364;28;19925;-73
2022/09/23 07:19:04;;;;;;;;;;;6.00;99.90;;;;;;5047384;28;19928;-72
2022/09/23 07:21:36;;;;;;;;;;;6.10;99.90;;;;;;5042973;28;20379;-72
2022/09/23 07:24:03;;;;;;;;;;;6.20;99.90;;;;;;5064424;28;19924;-71
2022/09/23 07:26:35;;;;;;;;;;;6.30;99.90;;;;;;5083157;28;19925;-72
2022/09/23 07:29:06;;;;;;;;;;;6.40;99.90;;;;;;5055879;28;19951;-71
2022/09/23 07:31:38;;;;;;;;;;;6.40;99.90;;;;;;5070469;28;20689;-72
2022/09/23 07:34:06;;;;;;;;;;;6.50;99.90;;;;;;5053681;28;19928;-72
2022/09/23 07:36:39;;;;;;;;;;;6.60;99.90;;;;;;5072589;28;19928;-72
2022/09/23 07:39:11;;;;;;;;;;;6.70;99.90;;;;;;5033581;28;19925;-72
2022/09/23 07:41:43;;;;;;;;;;;6.70;99.90;;;;;;5065629;28;19958;-72
2022/09/23 07:44:15;;;;;;;;;;;6.80;99.90;;;;;;5074516;28;19928;-72
2022/09/23 07:46:47;;;;;;;;;;;6.90;99.90;;;;;;5078697;28;19929;-71
2022/09/23 07:49:19;;;;;;;;;;;6.90;99.90;;;;;;5077610;28;19977;-72
2022/09/23 07:51:51;;;;;;;;;;;7.00;99.90;;;;;;5067833;28;19973;-72
2022/09/23 07:54:18;;;;;;;;;;;7.10;99.90;;;;;;5074676;28;19985;-73
2022/09/23 07:56:49;;;;;;;;;;;7.10;99.90;;;;;;5072234;28;19932;-72
2022/09/23 07:59:21;;;;;;;;;;;7.20;99.90;;;;;;5086894;28;19935;-71
2022/09/23 08:01:49;;;;;;;;;;;7.30;99.90;;;;;;5076124;28;19925;-72
2022/09/23 08:04:22;;;;;;;;;;;7.40;99.90;;;;;;5063281;28;20580;-72
2022/09/23 08:06:56;;;;;;;;;;;7.50;99.90;;;;;;5073262;28;20299;-73
2022/09/23 08:09:31;;;;;;;;;;;7.60;99.90;;;;;;5061098;28;19928;-72
2022/09/23 08:12:03;;;;;;;;;;;7.70;99.90;;;;;;5081368;28;20386;-72
2022/09/23 08:14:35;;;;;;;;;;;7.90;99.90;;;;;;5074440;28;19979;-72
2022/09/23 08:17:07;;;;;;;;;;;8.00;99.90;;;;;;5085187;28;20386;-73
2022/09/23 08:19:38;;;;;;;;;;;8.20;99.90;;;;;;5075888;28;19932;-72
2022/09/23 08:22:11;;;;;;;;;;;8.30;99.90;;;;;;5080507;28;20280;-72
2022/09/23 08:24:42;;;;;;;;;;;8.50;99.90;;;;;;5049878;28;19929;-72
2022/09/23 08:27:14;;;;;;;;;;;8.60;99.90;;;;;;5070863;28;20299;-71
2022/09/23 08:29:46;;;;;;;;;;;8.80;99.90;;;;;;5081293;28;20296;-73
2022/09/23 08:32:18;;;;;;;;;;;9.00;99.90;;;;;;5057263;28;19939;-72
2022/09/23 08:34:49;;;;;;;;;;;9.10;99.90;;;;;;5078370;28;20346;-72
2022/09/23 08:37:21;;;;;;;;;;;9.30;99.90;;;;;;5077666;28;19929;-72
2022/09/23 08:39:53;;;;;;;;;;;9.40;99.90;;;;;;5082192;28;19928;-72
2022/09/23 08:42:30;;;;;;;;;;;9.60;99.90;;;;;;5082199;28;19977;-72
2022/09/23 08:45:03;;;;;;;;;;;9.70;99.90;;;;;;5079609;28;19977;-73
2022/09/23 08:48:04;;;;;;;;;;;9.80;99.90;;;;;;5079714;28;19924;-72
2022/09/23 08:50:44;;;;;;;;;;;9.90;99.90;;;;;;5057330;28;20304;-72
2022/09/23 08:53:21;;;;;;;;;;;10.00;99.90;;;;;;5056003;28;20349;-72
2022/09/23 08:55:57;;;;;;;;;;;10.00;99.90;;;;;;5077734;28;19928;-71
2022/09/23 08:58:36;;;;;;;;;;;10.20;99.90;;;;;;5078930;28;19936;-72
2022/09/23 09:01:17;;;;;;;;;;;10.30;99.90;;;;;;5063076;28;19928;-71
2022/09/23 09:03:53;;;;;;;;;;;10.50;99.90;;;;;;5076329;28;20387;-72
2022/09/23 09:06:25;;;;;;;;;;;10.60;99.90;;;;;;5058323;28;19975;-71
2022/09/23 09:08:59;;;;;;;;;;;10.80;99.90;;;;;;5073827;28;19930;-72
2022/09/23 09:19:17;;;;;;;;;;;11.40;99.90;;;;;;5068713;28;19934;-71
2022/09/23 09:21:46;;;;;;;;;;;11.70;99.90;;;;;;5058282;28;19977;-72
2022/09/23 09:24:25;;;;;;;;;;;11.80;99.90;;;;;;5070563;28;19924;-72
2022/09/23 09:26:52;;;;;;;;;;;12.00;99.90;;;;;;5071159;28;19993;-73
2022/09/23 09:29:26;;;;;;;;;;;12.10;99.90;;;;;;5071578;28;19925;-72
2022/09/23 09:31:57;;;;;;;;;;;12.30;99.90;;;;;;5063728;28;19925;-71
2022/09/23 09:34:43;;;;;;;;;;;12.40;99.90;;;;;;5028801;28;20004;-72
2022/09/23 09:37:21;;;;;;;;;;;12.50;99.90;;;;;;5071754;28;19924;-72
2022/09/23 09:39:55;;;;;;;;;;;12.60;99.90;;;;;;5052708;28;19924;-72
2022/09/23 09:42:34;;;;;;;;;;;12.80;99.90;;;;;;5083442;28;19924;-72
2022/09/23 09:45:25;;;;;;;;;;;12.90;99.90;;;;;;5057146;28;19970;-71
2022/09/23 09:48:01;;;;;;;;;;;13.00;99.90;;;;;;5076214;28;19947;-71
2022/09/23 09:50:42;;;;;;;;;;;13.20;99.90;;;;;;5053932;28;19959;-71
2022/09/23 09:53:24;;;;;;;;;;;13.20;99.90;;;;;;5064254;28;19955;-72
2022/09/23 09:55:57;;;;;;;;;;;13.40;99.90;;;;;;5054650;28;19924;-72
2022/09/23 09:58:39;;;;;;;;;;;13.50;99.90;;;;;;5061389;28;20383;-72
2022/09/23 10:01:18;;;;;;;;;;;13.50;99.90;;;;;;5043146;28;19925;-71
2022/09/23 10:03:51;;;;;;;;;;;13.70;99.90;;;;;;5062737;28;21110;-73
2022/09/23 10:06:24;;;;;;;;;;;13.80;99.90;;;;;;5072842;28;19983;-72
2022/09/23 10:08:58;;;;;;;;;;;13.90;99.90;;;;;;5068141;28;19924;-72
2022/09/23 10:11:30;;;;;;;;;;;14.00;99.90;;;;;;5057196;28;19928;-72
2022/09/23 10:14:18;;;;;;;;;;;14.10;99.90;;;;;;5051307;28;19935;-73
2022/09/23 10:16:47;;;;;;;;;;;14.20;99.90;;;;;;5049805;28;19928;-73
2022/09/23 10:19:24;;;;;;;;;;;14.30;99.90;;;;;;5053722;28;19925;-72
2022/09/23 10:21:58;;;;;;;;;;;14.40;99.90;;;;;;5062095;28;19929;-72
2022/09/23 10:24:28;;;;;;;;;;;14.40;99.90;;;;;;5052855;28;20457;-72
2022/09/23 10:27:06;;;;;;;;;;;14.50;99.90;;;;;;5066033;28;19993;-72
2022/09/23 10:29:39;;;;;;;;;;;14.60;99.90;;;;;;5079016;28;19932;-72
2022/09/23 10:32:31;;;;;;;;;;;14.80;99.90;;;;;;5083152;28;19979;-72
2022/09/23 10:35:07;;;;;;;;;;;14.90;99.90;;;;;;5069949;28;19936;-72
2022/09/23 10:37:42;;;;;;;;;;;15.00;99.90;;;;;;5052804;28;20392;-71
2022/09/23 10:46:38;;;;;;;;;;;15.20;99.90;;;;;;5052134;28;19978;-72
2022/09/23 10:49:08;;;;;;;;;;;15.30;99.90;;;;;;5054604;28;19928;-73
2022/09/23 10:51:48;;;;;;;;;;;15.40;99.90;;;;;;5034648;28;19974;-73
2022/09/23 10:54:34;;;;;;;;;;;15.50;99.90;;;;;;5067328;28;19932;-72
2022/09/23 11:00:23;;;;;;;;;;;15.80;99.90;;;;;;5070215;28;20566;-72
2022/09/23 11:03:18;;;;;;;;;;;15.90;99.90;;;;;;5069555;28;19975;-71
2022/09/23 11:06:10;;;;;;;;;;;16.00;99.90;;;;;;5062273;28;19939;-73
2022/09/23 11:08:55;;;;;;;;;;;16.10;99.90;;;;;;5071975;28;19931;-70
2022/09/23 11:11:34;;;;;;;;;;;16.20;99.90;;;;;;5094453;28;19924;-71
2022/09/23 11:14:31;;;;;;;;;;;16.20;99.90;;;;;;5060663;28;19928;-72
2022/09/23 11:17:06;;;;;;;;;;;16.30;99.90;;;;;;5071494;28;19929;-73
2022/09/23 11:19:44;;;;;;;;;;;16.30;99.90;;;;;;5056708;28;19933;-71
2022/09/23 11:22:15;;;;;;;;;;;16.30;99.90;;;;;;5081493;28;19924;-72
2022/09/23 11:24:57;;;;;;;;;;;16.40;99.90;;;;;;5057608;28;19970;-73
2022/09/23 11:27:43;;;;;;;;;;;16.40;99.90;;;;;;5068981;28;19925;-72
2022/09/23 11:30:16;;;;;;;;;;;16.50;99.90;;;;;;5074907;28;20574;-73
2022/09/23 11:33:04;;;;;;;;;;;16.60;99.90;;;;;;5076612;28;19928;-72
2022/09/23 11:35:37;;;;;;;;;;;16.70;99.90;;;;;;5059258;28;19936;-72
2022/09/23 11:38:10;;;;;;;;;;;16.80;99.90;;;;;;5049206;28;20054;-71
2022/09/23 11:40:44;;;;;;;;;;;16.90;99.90;;;;;;5068676;28;19925;-72
2022/09/23 11:43:23;;;;;;;;;;;16.90;99.90;;;;;;5054001;28;19982;-71
2022/09/23 11:46:00;;;;;;;;;;;17.00;99.90;;;;;;5065847;28;19978;-72
2022/09/23 11:48:41;;;;;;;;;;;17.00;99.90;;;;;;5055540;28;20121;-71
2022/09/23 11:51:12;;;;;;;;;;;17.10;99.90;;;;;;5069798;28;20341;-72
2022/09/23 11:53:47;;;;;;;;;;;17.10;99.90;;;;;;5072328;28;19932;-72
2022/09/23 11:56:27;;;;;;;;;;;17.20;99.90;;;;;;5092108;28;19924;-72
2022/09/23 11:59:08;;;;;;;;;;;17.30;99.90;;;;;;5070911;28;19932;-72
2022/09/23 12:02:03;;;;;;;;;;;17.30;99.90;;;;;;5056310;28;19925;-71
2022/09/23 12:04:41;;;;;;;;;;;17.40;99.90;;;;;;5057379;28;20418;-72
2022/09/23 12:07:16;;;;;;;;;;;17.30;99.90;;;;;;5049396;28;19959;-71
2022/09/23 12:10:02;;;;;;;;;;;17.40;99.90;;;;;;5062984;28;19929;-72
2022/09/23 12:12:46;;;;;;;;;;;17.40;99.90;;;;;;5071863;28;19924;-75
2022/09/23 12:15:21;;;;;;;;;;;17.40;99.90;;;;;;5063366;28;19924;-73
2022/09/23 12:17:56;;;;;;;;;;;17.50;99.90;;;;;;5074009;28;19927;-72
2022/09/23 12:20:53;;;;;;;;;;;17.50;99.90;;;;;;5078205;28;19924;-73
2022/09/23 12:23:48;;;;;;;;;;;17.60;99.90;;;;;;5029304;28;19932;-72
2022/09/23 12:26:21;;;;;;;;;;;17.60;99.90;;;;;;5047226;28;20387;-71
2022/09/23 12:28:57;;;;;;;;;;;17.60;99.90;;;;;;5065753;28;19931;-72
2022/09/23 12:31:30;;;;;;;;;;;17.80;99.90;;;;;;5077595;28;19932;-73
2022/09/23 12:33:59;;;;;;;;;;;17.80;99.90;;;;;;5042343;28;19933;-72
2022/09/23 12:36:34;;;;;;;;;;;17.80;99.90;;;;;;5064597;28;19924;-71
2022/09/23 12:39:05;;;;;;;;;;;17.90;99.90;;;;;;5078911;28;19932;-71
2022/09/23 12:41:40;;;;;;;;;;;18.00;99.90;;;;;;5038425;28;20015;-72
2022/09/23 12:44:14;;;;;;;;;;;17.90;99.90;;;;;;5062341;28;19925;-71
2022/09/23 12:46:46;;;;;;;;;;;17.90;99.90;;;;;;5064801;28;19932;-72
2022/09/23 12:49:24;;;;;;;;;;;17.80;99.90;;;;;;5054098;28;19929;-71
2022/09/23 12:52:10;;;;;;;;;;;17.70;99.90;;;;;;5055150;28;20395;-72
2022/09/23 12:54:43;;;;;;;;;;;17.80;99.90;;;;;;5047975;28;19925;-71
2022/09/23 12:57:17;;;;;;;;;;;17.90;99.90;;;;;;5048473;28;19925;-71
2022/09/23 13:00:11;;;;;;;;;;;18.10;99.90;;;;;;5050495;28;19929;-72
2022/09/23 13:02:46;;;;;;;;;;;18.30;99.90;;;;;;5036905;28;19932;-72
2022/09/23 13:08:12;;;;;;;;;;;18.50;99.90;;;;;;5074226;28;19924;-72
2022/09/23 13:10:48;;;;;;;;;;;18.70;99.90;;;;;;5072342;28;19939;-71
2022/09/23 13:13:30;;;;;;;;;;;18.70;99.90;;;;;;5053457;28;20391;-72
2022/09/23 13:16:10;;;;;;;;;;;18.70;99.90;;;;;;5048110;28;19936;-72
2022/09/23 13:18:53;;;;;;;;;;;18.70;99.90;;;;;;5071623;28;19929;-72
2022/09/23 13:21:45;;;;;;;;;;;18.70;99.90;;;;;;5035287;28;19994;-72
2022/09/23 13:24:34;;;;;;;;;;;18.60;99.90;;;;;;5058059;28;19925;-74
2022/09/23 13:27:15;;;;;;;;;;;18.70;99.90;;;;;;5036060;28;19928;-71
2022/09/23 13:30:04;;;;;;;;;;;18.70;99.90;;;;;;5080496;28;20438;-72
2022/09/23 13:32:38;;;;;;;;;;;18.80;99.90;;;;;;5049643;28;19975;-72
2022/09/23 13:35:28;;;;;;;;;;;18.90;99.90;;;;;;5057529;28;19928;-72
2022/09/23 13:37:55;;;;;;;;;;;19.00;99.90;;;;;;5067089;28;19932;-72
2022/09/23 13:40:27;;;;;;;;;;;19.00;99.90;;;;;;5056238;28;19924;-71
2022/09/23 13:43:00;;;;;;;;;;;18.90;99.90;;;;;;5056693;28;19928;-71
2022/09/23 13:45:36;;;;;;;;;;;18.80;99.90;;;;;;5075315;28;20533;-72
2022/09/23 13:48:13;;;;;;;;;;;18.70;99.90;;;;;;5048376;28;19932;-74
2022/09/23 13:50:49;;;;;;;;;;;18.80;99.90;;;;;;5072625;28;19928;-71
2022/09/23 13:53:30;;;;;;;;;;;19.00;99.90;;;;;;5075294;28;19925;-72
2022/09/23 13:56:03;;;;;;;;;;;19.20;99.90;;;;;;5065959;28;19933;-72
2022/09/23 13:58:35;;;;;;;;;;;19.20;99.90;;;;;;5069541;28;19973;-72
2022/09/23 14:01:09;;;;;;;;;;;19.20;99.90;;;;;;5062368;28;20452;-73
2022/09/23 14:03:40;;;;;;;;;;;19.40;99.90;;;;;;5072513;28;20054;-72
2022/09/23 14:06:12;;;;;;;;;;;19.50;99.90;;;;;;5081117;28;19928;-72
2022/09/23 14:08:46;;;;;;;;;;;19.50;99.90;;;;;;5065585;28;19929;-72
2022/09/23 14:11:18;;;;;;;;;;;19.60;99.90;;;;;;5074134;28;20464;-72
2022/09/23 14:13:46;;;;;;;;;;;19.50;99.90;;;;;;5046463;28;19928;-72
2022/09/23 14:16:18;;;;;;;;;;;19.40;99.90;;;;;;5059741;28;19927;-73
2022/09/23 14:18:50;;;;;;;;;;;19.50;99.90;;;;;;5079259;28;19924;-72
2022/09/23 14:21:26;;;;;;;;;;;19.60;99.90;;;;;;5067992;28;19944;-73
2022/09/23 14:24:03;;;;;;;;;;;19.60;99.90;;;;;;5073712;28;19924;-72
2022/09/23 14:26:35;;;;;;;;;;;19.70;99.90;;;;;;5067798;28;19978;-72
2022/09/23 14:29:02;;;;;;;;;;;19.60;99.90;;;;;;5075516;28;19924;-72
2022/09/23 14:31:33;;;;;;;;;;;19.50;99.90;;;;;;5066554;28;20394;-72
2022/09/23 14:34:25;;;;;;;;;;;19.50;99.90;;;;;;5081380;28;19931;-72
2022/09/23 14:39:49;;;;;;;;;;;19.30;99.90;;;;;;5085712;28;20713;-72
2022/09/23 14:42:20;;;;;;;;;;;19.30;99.90;;;;;;5061350;28;19931;-72
2022/09/23 14:44:52;;;;;;;;;;;19.40;99.90;;;;;;5056508;28;19928;-72
2022/09/23 14:47:24;;;;;;;;;;;19.60;99.90;;;;;;5072336;28;20311;-72
2022/09/23 14:52:47;;;;;;;;;;;20.10;99.90;;;;;;5055357;28;19924;-72
2022/09/23 14:55:19;;;;;;;;;;;20.40;99.90;;;;;;5062660;28;19924;-72
2022/09/23 14:57:59;;;;;;;;;;;20.60;99.90;;;;;;5080892;28;19924;-72
2022/09/23 15:00:30;;;;;;;;;;;20.80;99.90;;;;;;5074726;28;19971;-72
2022/09/23 15:03:03;;;;;;;;;;;20.90;99.90;;;;;;5073720;28;19924;-72
2022/09/23 15:05:40;;;;;;;;;;;20.90;99.90;;;;;;5087121;28;19986;-73
2022/09/23 15:08:14;;;;;;;;;;;20.90;99.90;;;;;;5048644;28;19932;-72
2022/09/23 15:10:46;;;;;;;;;;;20.90;99.90;;;;;;5056113;28;19977;-72
2022/09/23 15:13:19;;;;;;;;;;;20.80;99.90;;;;;;5068245;28;19929;-72
2022/09/23 15:15:51;;;;;;;;;;;20.60;99.90;;;;;;5052451;28;19981;-72
2022/09/23 15:18:23;;;;;;;;;;;20.30;99.90;;;;;;5085141;28;19924;-72
2022/09/23 15:21:14;;;;;;;;;;;20.00;99.90;;;;;;5070354;28;20304;-72
2022/09/23 15:23:47;;;;;;;;;;;19.70;99.90;;;;;;5064689;28;19954;-73
2022/09/23 15:26:18;;;;;;;;;;;19.30;99.90;;;;;;5081565;28;19924;-72
2022/09/23 15:28:52;;;;;;;;;;;19.10;99.90;;;;;;5068890;28;19979;-72
2022/09/23 15:31:25;;;;;;;;;;;18.90;99.90;;;;;;5068878;28;19969;-72
2022/09/23 15:33:57;;;;;;;;;;;18.80;99.90;;;;;;5064605;28;19974;-73
2022/09/23 15:36:28;;;;;;;;;;;18.80;99.90;;;;;;5066499;28;19927;-72
2022/09/23 15:39:01;;;;;;;;;;;18.80;99.90;;;;;;5047779;28;20280;-72